Time;durP1;ratioP1;P1;durP2;ratioP2;P2;SDS_P1;SDS_P2;PMS_P1;PMS_P2;Temp;Humidity;BMP_temperature;BMP_pressure;BME280_temperature;BME280_humidity;BME280_pressure;Samples;Min_cycle;Max_cycle;Signal;HPM_P1;HPM_P2
2021/04/08 00:00:17;;;;;;;4.03;2.20;;;20.30;40.20;;;;;;5115955;27;20381;-38
2021/04/08 00:02:45;;;;;;;4.32;2.67;;;20.30;40.20;;;;;;5130936;27;20581;-38
2021/04/08 00:05:14;;;;;;;3.47;2.40;;;20.30;40.20;;;;;;5131760;28;20416;-37
2021/04/08 00:07:41;;;;;;;3.83;2.50;;;20.30;40.20;;;;;;5131407;28;20116;-38
2021/04/08 00:10:09;;;;;;;3.83;2.35;;;20.30;40.20;;;;;;5118249;27;20101;-38
2021/04/08 00:12:36;;;;;;;3.17;2.25;;;20.30;40.20;;;;;;5117917;27;20048;-37
2021/04/08 00:15:08;;;;;;;4.10;2.47;;;20.30;40.20;;;;;;5129180;27;20099;-38
2021/04/08 00:17:34;;;;;;;5.43;2.70;;;20.30;40.20;;;;;;5123837;27;20085;-38
2021/04/08 00:20:06;;;;;;;3.72;2.22;;;20.30;40.20;;;;;;5125831;27;20402;-38
2021/04/08 00:22:33;;;;;;;3.80;2.40;;;20.30;40.20;;;;;;5111885;27;20090;-38
2021/04/08 00:24:59;;;;;;;4.53;2.53;;;20.30;40.20;;;;;;5125012;27;20115;-38
2021/04/08 00:27:26;;;;;;;4.25;2.42;;;20.30;40.20;;;;;;5136423;27;20051;-37
2021/04/08 00:29:52;;;;;;;4.20;2.58;;;20.30;40.80;;;;;;5099474;27;20039;-37
2021/04/08 00:32:19;;;;;;;4.50;2.60;;;20.30;40.20;;;;;;5117871;27;20507;-37
2021/04/08 00:34:46;;;;;;;3.97;2.42;;;20.30;40.20;;;;;;5118534;27;20050;-38
2021/04/08 00:37:12;;;;;;;3.65;2.42;;;20.30;40.20;;;;;;5121633;27;20086;-38
2021/04/08 00:39:39;;;;;;;3.78;2.45;;;20.30;40.20;;;;;;5120146;27;20124;-38
2021/04/08 00:42:06;;;;;;;5.85;2.50;;;20.30;40.20;;;;;;5121828;27;20487;-38
2021/04/08 00:44:33;;;;;;;4.13;2.30;;;20.30;40.20;;;;;;5121700;27;20039;-38
2021/04/08 00:47:00;;;;;;;4.55;2.70;;;20.30;40.20;;;;;;5122526;27;20048;-37
2021/04/08 00:49:27;;;;;;;4.05;2.20;;;20.30;40.20;;;;;;5121606;27;20043;-38
2021/04/08 00:51:53;;;;;;;3.13;2.28;;;20.30;40.20;;;;;;5120341;27;20040;-38
2021/04/08 00:54:20;;;;;;;3.97;2.30;;;20.30;40.20;;;;;;5118837;27;20086;-38
2021/04/08 00:56:48;;;;;;;4.00;2.42;;;20.30;40.20;;;;;;5120335;27;20079;-38
2021/04/08 00:59:15;;;;;;;3.63;2.53;;;20.30;40.20;;;;;;5117299;27;20475;-38
2021/04/08 01:01:42;;;;;;;5.30;3.15;;;20.30;40.20;;;;;;5119100;27;20086;-38
2021/04/08 01:04:09;;;;;;;5.15;2.30;;;20.30;40.20;;;;;;5121247;27;20131;-38
2021/04/08 01:06:36;;;;;;;3.53;2.30;;;20.30;40.20;;;;;;5119852;27;20075;-38
2021/04/08 01:09:05;;;;;;;3.80;2.38;;;20.30;40.20;;;;;;5114940;27;20127;-38
2021/04/08 01:11:31;;;;;;;4.03;2.25;;;20.30;40.20;;;;;;5127969;27;20091;-38
2021/04/08 01:13:58;;;;;;;3.85;2.50;;;20.30;40.20;;;;;;5133366;27;20463;-38
2021/04/08 01:16:43;;;;;;;3.70;2.03;;;20.30;40.20;;;;;;5133860;27;20050;-38
2021/04/08 01:19:28;;;;;;;3.72;2.20;;;20.30;40.20;;;;;;5132745;27;20047;-38
2021/04/08 01:22:50;;;;;;;3.13;1.77;;;20.30;40.20;;;;;;5134199;27;20116;-38
2021/04/08 01:25:44;;;;;;;4.03;2.20;;;20.30;40.20;;;;;;5049377;28;20045;-38
2021/04/08 01:28:28;;;;;;;;;;;20.30;40.20;;;;;;5053012;28;20041;-38
2021/04/08 01:30:56;;;;;;;3.92;2.10;;;20.30;40.20;;;;;;5052383;28;19920;-38
2021/04/08 01:33:31;;;;;;;3.17;2.15;;;20.30;40.30;;;;;;5065533;28;20070;-38
2021/04/08 01:36:04;;;;;;;4.55;2.60;;;20.30;40.30;;;;;;5069477;28;20048;-37
2021/04/08 01:38:41;;;;;;;3.13;1.80;;;20.30;40.30;;;;;;5069285;28;20462;-38
2021/04/08 01:41:09;;;;;;;3.28;2.15;;;20.20;40.20;;;;;;5063277;28;20602;-38
2021/04/08 01:43:40;;;;;;;3.58;2.08;;;20.20;40.20;;;;;;5062895;28;20528;-38
2021/04/08 01:46:08;;;;;;;4.10;2.40;;;20.20;40.20;;;;;;5070288;28;20086;-38
2021/04/08 01:48:37;;;;;;;3.60;2.30;;;20.30;40.30;;;;;;5067867;28;20044;-38
2021/04/08 01:51:07;;;;;;;3.42;1.98;;;20.30;40.30;;;;;;5053891;28;20051;-39
2021/04/08 01:53:39;;;;;;;3.65;2.05;;;20.20;40.20;;;;;;5069267;28;20110;-38
2021/04/08 01:56:09;;;;;;;3.43;2.03;;;20.20;40.20;;;;;;5053561;28;20128;-38
2021/04/08 01:58:35;;;;;;;2.83;1.80;;;20.30;40.30;;;;;;5081205;28;20346;-38
2021/04/08 02:01:03;;;;;;;3.75;2.15;;;20.20;40.20;;;;;;5133907;27;20088;-38
2021/04/08 02:03:31;;;;;;;3.75;2.00;;;20.20;40.20;;;;;;5133893;27;20053;-38
2021/04/08 02:05:59;;;;;;;4.10;1.98;;;20.20;40.20;;;;;;5132426;27;20043;-39
2021/04/08 02:08:27;;;;;;;3.30;1.98;;;20.20;40.10;;;;;;5133841;27;20058;-38
2021/04/08 02:10:55;;;;;;;3.33;2.03;;;20.30;40.30;;;;;;5132337;27;20096;-38
2021/04/08 02:13:23;;;;;;;3.80;2.08;;;20.20;40.20;;;;;;5107409;27;744039;-39
2021/04/08 02:15:51;;;;;;;3.00;2.10;;;20.30;40.30;;;;;;5134481;27;20502;-39
2021/04/08 02:18:21;;;;;;;3.55;1.90;;;20.20;40.10;;;;;;5131716;27;20046;-38
2021/04/08 02:20:50;;;;;;;3.58;1.90;;;20.20;40.20;;;;;;5132959;27;20047;-39
2021/04/08 02:23:29;;;;;;;3.83;2.33;;;20.20;40.10;;;;;;5132352;27;20472;-38
2021/04/08 02:25:56;;;;;;;3.22;1.80;;;20.20;40.10;;;;;;5117157;27;20096;-39
2021/04/08 02:28:26;;;;;;;3.42;2.08;;;20.20;40.10;;;;;;5133673;27;20095;-39
2021/04/08 02:30:55;;;;;;;2.38;1.77;;;20.20;40.10;;;;;;5132160;27;20043;-39
2021/04/08 02:33:21;;;;;;;3.20;2.00;;;20.20;40.10;;;;;;5133807;27;20067;-39
2021/04/08 02:35:49;;;;;;;2.83;1.90;;;20.30;40.20;;;;;;5116248;27;20044;-39
2021/04/08 02:38:17;;;;;;;3.50;2.08;;;20.20;40.20;;;;;;5121613;27;20486;-38
2021/04/08 02:40:44;;;;;;;3.28;1.80;;;20.20;40.20;;;;;;5126269;27;20076;-39
2021/04/08 02:43:12;;;;;;;3.72;2.00;;;20.20;40.20;;;;;;5133150;27;20039;-38
2021/04/08 02:45:39;;;;;;;3.35;2.10;;;20.20;40.20;;;;;;5133514;27;20046;-40
2021/04/08 02:48:08;;;;;;;5.03;2.10;;;20.20;40.10;;;;;;5128184;27;20061;-39
2021/04/08 02:50:35;;;;;;;3.25;1.98;;;20.20;40.10;;;;;;5120158;27;20574;-37
2021/04/08 02:53:09;;;;;;;3.42;2.00;;;20.20;40.10;;;;;;5132856;27;20039;-38
2021/04/08 02:55:43;;;;;;;3.42;2.00;;;20.20;40.20;;;;;;5134747;27;20050;-38
2021/04/08 02:58:14;;;;;;;3.22;1.75;;;20.20;40.10;;;;;;5115758;27;20055;-38
2021/04/08 03:00:52;;;;;;;3.25;1.90;;;20.20;40.20;;;;;;5114430;27;20048;-39
2021/04/08 03:03:23;;;;;;;4.30;2.20;;;20.20;40.20;;;;;;5132276;27;20394;-38
2021/04/08 03:05:53;;;;;;;3.80;2.10;;;20.20;40.10;;;;;;5116625;27;20047;-38
2021/04/08 03:08:20;;;;;;;3.10;1.90;;;20.20;40.20;;;;;;5100062;27;20075;-38
2021/04/08 03:10:47;;;;;;;3.40;2.00;;;20.20;40.20;;;;;;5132047;27;20043;-38
2021/04/08 03:13:17;;;;;;;2.85;1.80;;;20.20;40.20;;;;;;5122934;27;20051;-40
2021/04/08 03:15:45;;;;;;;2.67;1.90;;;20.20;40.20;;;;;;5118977;27;20100;-38
2021/04/08 03:18:17;;;;;;;2.53;1.63;;;20.20;40.10;;;;;;5122526;27;20084;-38
2021/04/08 03:20:50;;;;;;;4.28;2.28;;;20.20;40.10;;;;;;5124018;27;20040;-38
2021/04/08 03:23:20;;;;;;;2.95;1.77;;;20.20;40.20;;;;;;5118759;27;20040;-38
2021/04/08 03:25:51;;;;;;;2.60;1.85;;;20.20;40.20;;;;;;5120404;27;20414;-38
2021/04/08 03:28:19;;;;;;;3.22;1.83;;;20.20;40.20;;;;;;5131467;27;20043;-38
2021/04/08 03:30:47;;;;;;;3.45;2.00;;;20.20;40.20;;;;;;5116790;27;20047;-38
2021/04/08 03:33:16;;;;;;;2.60;1.55;;;20.20;40.20;;;;;;5114874;27;20051;-38
2021/04/08 03:35:50;;;;;;;3.25;1.85;;;20.20;40.20;;;;;;5115424;27;20051;-38
2021/04/08 03:38:19;;;;;;;3.17;1.98;;;20.20;40.20;;;;;;5115145;27;20052;-38
2021/04/08 03:40:46;;;;;;;3.25;1.83;;;20.20;40.20;;;;;;5115665;27;20036;-38
2021/04/08 03:43:14;;;;;;;2.85;1.80;;;20.20;40.20;;;;;;5116724;27;20608;-38
2021/04/08 03:45:41;;;;;;;3.55;2.08;;;20.20;40.20;;;;;;5116762;27;20130;-38
2021/04/08 03:48:12;;;;;;;3.20;2.03;;;20.20;40.20;;;;;;5125022;27;20519;-38
2021/04/08 03:50:41;;;;;;;2.97;1.48;;;20.20;40.20;;;;;;5134008;27;20138;-38
2021/04/08 03:53:09;;;;;;;3.05;1.63;;;20.20;40.20;;;;;;5132271;27;20096;-39
2021/04/08 03:55:38;;;;;;;2.70;1.70;;;20.20;40.20;;;;;;5132566;27;20050;-38
2021/04/08 03:58:06;;;;;;;3.22;2.03;;;20.20;40.10;;;;;;5131482;27;20091;-38
2021/04/08 04:00:34;;;;;;;3.33;2.10;;;20.20;40.20;;;;;;5132348;27;20119;-37
2021/04/08 04:03:02;;;;;;;2.78;1.88;;;20.20;40.10;;;;;;5134229;27;20414;-38
2021/04/08 04:05:29;;;;;;;3.30;1.80;;;20.20;40.10;;;;;;5132071;28;20120;-38
2021/04/08 04:07:56;;;;;;;2.53;1.70;;;20.20;40.20;;;;;;5132770;27;20070;-38
2021/04/08 04:10:23;;;;;;;3.63;2.30;;;20.20;40.20;;;;;;5131585;27;20147;-38
2021/04/08 04:12:52;;;;;;;2.50;1.85;;;20.20;40.20;;;;;;5114130;28;20065;-38
2021/04/08 04:15:20;;;;;;;3.28;1.80;;;20.20;40.20;;;;;;5132469;27;20051;-38
2021/04/08 04:17:48;;;;;;;2.30;1.70;;;20.20;40.20;;;;;;5129650;27;20123;-38
2021/04/08 04:20:16;;;;;;;2.65;1.80;;;20.20;40.20;;;;;;5129752;27;20070;-38
2021/04/08 04:22:43;;;;;;;3.58;1.70;;;20.20;40.20;;;;;;5115545;28;20039;-38
2021/04/08 04:25:12;;;;;;;3.15;1.92;;;20.20;40.10;;;;;;5132302;27;20092;-38
2021/04/08 04:27:40;;;;;;;2.25;1.60;;;20.20;40.10;;;;;;5130918;27;20496;-38
2021/04/08 04:30:08;;;;;;;2.70;1.63;;;20.20;40.20;;;;;;5126079;27;20070;-38
2021/04/08 04:32:35;;;;;;;2.40;1.70;;;20.20;40.20;;;;;;5115410;27;20456;-38
2021/04/08 04:35:02;;;;;;;2.85;1.63;;;20.20;40.10;;;;;;5132238;27;20167;-38
2021/04/08 04:37:29;;;;;;;2.03;1.55;;;20.20;40.10;;;;;;5131481;27;20104;-38
2021/04/08 04:39:55;;;;;;;2.63;1.63;;;20.20;40.10;;;;;;5130716;27;20124;-38
2021/04/08 04:42:22;;;;;;;2.90;1.88;;;20.20;40.10;;;;;;5114996;28;20075;-38
2021/04/08 04:44:48;;;;;;;3.30;1.88;;;20.20;40.10;;;;;;5130595;27;20075;-38
2021/04/08 04:47:15;;;;;;;3.15;1.80;;;20.20;40.20;;;;;;5129230;27;20052;-38
2021/04/08 04:49:42;;;;;;;2.40;1.60;;;20.20;40.20;;;;;;5120244;27;20379;-38
2021/04/08 04:52:09;;;;;;;2.65;1.50;;;20.20;40.20;;;;;;5129770;27;20474;-38
2021/04/08 04:54:35;;;;;;;2.55;1.63;;;20.20;40.20;;;;;;5132204;27;20047;-38
2021/04/08 04:57:02;;;;;;;3.05;1.73;;;20.20;40.20;;;;;;5133586;27;20096;-38
2021/04/08 04:59:28;;;;;;;3.00;1.80;;;20.20;40.20;;;;;;5131247;28;20043;-38
2021/04/08 05:01:55;;;;;;;2.45;1.40;;;20.20;40.20;;;;;;5115327;28;20045;-38
2021/04/08 05:04:22;;;;;;;2.55;1.60;;;20.20;40.20;;;;;;5130565;27;20043;-38
2021/04/08 05:06:49;;;;;;;3.17;1.75;;;20.20;40.20;;;;;;5134221;27;20082;-38
2021/04/08 05:09:15;;;;;;;2.38;1.50;;;20.20;40.10;;;;;;5134606;27;20100;-38
2021/04/08 05:11:42;;;;;;;2.50;1.50;;;20.20;40.10;;;;;;5127235;27;20096;-38
2021/04/08 05:14:08;;;;;;;2.63;1.63;;;20.20;40.20;;;;;;5121643;27;20051;-38
2021/04/08 05:16:35;;;;;;;2.33;1.20;;;20.20;40.10;;;;;;5102885;27;20566;-38
2021/04/08 05:19:02;;;;;;;2.95;1.58;;;20.20;40.20;;;;;;5119300;27;20107;-38
2021/04/08 05:21:28;;;;;;;2.58;1.58;;;20.20;40.20;;;;;;5135852;27;20077;-38
2021/04/08 05:23:55;;;;;;;2.75;1.50;;;20.20;40.20;;;;;;5135398;27;20074;-38
2021/04/08 05:26:22;;;;;;;1.85;1.23;;;20.20;40.20;;;;;;5134662;27;20043;-38
2021/04/08 05:28:48;;;;;;;2.50;1.40;;;20.20;40.20;;;;;;5134292;27;20104;-38
2021/04/08 05:31:15;;;;;;;2.22;1.45;;;20.20;40.20;;;;;;5132501;27;20092;-38
2021/04/08 05:33:41;;;;;;;2.38;1.45;;;20.20;40.20;;;;;;5123304;27;20510;-38
2021/04/08 05:36:09;;;;;;;2.05;1.40;;;20.20;40.20;;;;;;5118208;27;20560;-38
2021/04/08 05:38:35;;;;;;;2.55;1.40;;;20.20;40.20;;;;;;5125823;27;20039;-38
2021/04/08 05:41:02;;;;;;;3.67;1.60;;;20.20;40.20;;;;;;5128666;27;20036;-38
2021/04/08 05:43:29;;;;;;;3.53;1.60;;;20.20;40.20;;;;;;5118179;27;20082;-38
2021/04/08 05:45:55;;;;;;;2.92;1.42;;;20.20;40.20;;;;;;5119605;27;20043;-38
2021/04/08 05:48:22;;;;;;;1.98;1.40;;;20.20;40.20;;;;;;5120570;27;20039;-38
2021/04/08 05:50:48;;;;;;;3.05;1.67;;;20.20;40.20;;;;;;5116660;27;20058;-38
2021/04/08 05:53:15;;;;;;;2.67;1.70;;;20.20;40.20;;;;;;5117134;27;20075;-38
2021/04/08 05:55:41;;;;;;;2.63;1.50;;;20.20;40.20;;;;;;5133277;27;20063;-38
2021/04/08 05:58:08;;;;;;;2.47;1.35;;;20.20;40.20;;;;;;5132638;27;20051;-38
2021/04/08 06:00:35;;;;;;;2.45;1.52;;;20.20;40.20;;;;;;5133533;27;20039;-38
2021/04/08 06:03:01;;;;;;;2.35;1.30;;;20.20;40.20;;;;;;5134450;27;20038;-38
2021/04/08 06:05:28;;;;;;;2.28;1.40;;;20.20;40.20;;;;;;5129672;27;20462;-38
2021/04/08 06:07:55;;;;;;;2.20;1.30;;;20.20;40.20;;;;;;5119847;27;20039;-38
2021/04/08 06:10:21;;;;;;;2.55;1.67;;;20.20;40.20;;;;;;5120705;27;20529;-38
2021/04/08 06:12:49;;;;;;;2.88;1.60;;;20.20;40.20;;;;;;5118272;27;20042;-37
2021/04/08 06:15:18;;;;;;;2.70;1.60;;;20.20;40.20;;;;;;5134914;27;24775;-38
2021/04/08 06:17:44;;;;;;;2.58;1.40;;;20.20;40.10;;;;;;5133302;27;20108;-38
2021/04/08 06:20:13;;;;;;;2.45;1.50;;;20.20;40.10;;;;;;5117884;27;20048;-38
2021/04/08 06:22:56;;;;;;;2.45;1.40;;;20.20;40.10;;;;;;5117580;27;20052;-38
2021/04/08 06:25:27;;;;;;;2.40;1.40;;;20.20;40.10;;;;;;5117284;27;20047;-38
2021/04/08 06:27:53;;;;;;;2.70;1.67;;;20.20;40.10;;;;;;5130507;27;20043;-38
2021/04/08 06:30:21;;;;;;;1.95;1.23;;;20.20;40.10;;;;;;5122760;27;20355;-38
2021/04/08 06:32:48;;;;;;;2.28;1.30;;;20.20;40.10;;;;;;5128602;27;20047;-38
2021/04/08 06:35:15;;;;;;;2.25;1.20;;;20.20;40.10;;;;;;5133864;27;20054;-38
2021/04/08 06:37:41;;;;;;;1.98;1.42;;;20.20;40.10;;;;;;5135127;27;20107;-39
2021/04/08 06:40:09;;;;;;;2.03;1.23;;;20.20;40.10;;;;;;5132781;27;20096;-39
2021/04/08 06:42:36;;;;;;;2.47;1.40;;;20.20;40.10;;;;;;5132417;27;20498;-39
2021/04/08 06:45:07;;;;;;;2.42;1.42;;;20.20;40.10;;;;;;5134102;27;20113;-38
2021/04/08 06:47:54;;;;;;;2.65;1.50;;;20.20;40.10;;;;;;5130916;27;20061;-39
2021/04/08 06:50:25;;;;;;;2.35;1.30;;;20.20;40.10;;;;;;5097773;27;20511;-38
2021/04/08 06:52:52;;;;;;;1.77;1.20;;;20.20;40.10;;;;;;5133036;27;20049;-38
2021/04/08 06:55:20;;;;;;;2.17;1.38;;;20.20;40.10;;;;;;5133166;27;20079;-38
2021/04/08 06:57:48;;;;;;;2.00;1.35;;;20.20;40.10;;;;;;5133647;27;20047;-39
2021/04/08 07:00:16;;;;;;;2.03;1.25;;;20.20;40.10;;;;;;5134778;27;20051;-44
2021/04/08 07:02:43;;;;;;;2.10;1.30;;;20.20;40.10;;;;;;5133564;27;20100;-39
2021/04/08 07:05:11;;;;;;;2.25;1.50;;;20.20;40.10;;;;;;5125773;27;20044;-39
2021/04/08 07:07:37;;;;;;;1.95;1.10;;;20.20;40.10;;;;;;5116128;27;20046;-39
2021/04/08 07:10:05;;;;;;;2.00;1.27;;;20.20;40.10;;;;;;5111577;27;20047;-39
2021/04/08 07:12:32;;;;;;;2.20;1.30;;;20.20;40.10;;;;;;5120294;27;20043;-38
2021/04/08 07:14:59;;;;;;;2.47;1.45;;;20.20;40.00;;;;;;5132904;27;20125;-39
2021/04/08 07:17:26;;;;;;;1.55;1.23;;;20.20;40.00;;;;;;5114578;27;20491;-38
2021/04/08 07:19:57;;;;;;;1.92;1.40;;;20.20;40.00;;;;;;5115325;27;20410;-38
2021/04/08 07:22:24;;;;;;;2.10;1.30;;;20.20;40.00;;;;;;5132999;27;20039;-39
2021/04/08 07:24:52;;;;;;;1.98;1.30;;;20.20;40.00;;;;;;5117793;27;20051;-38
2021/04/08 07:27:22;;;;;;;2.08;1.27;;;20.20;40.00;;;;;;5131148;27;20115;-38
2021/04/08 07:29:51;;;;;;;1.77;1.13;;;20.20;40.00;;;;;;5110484;28;20083;-38
2021/04/08 07:32:23;;;;;;;2.92;1.52;;;20.20;40.00;;;;;;5126288;27;20176;-38
2021/04/08 07:34:56;;;;;;;2.03;1.42;;;20.20;40.10;;;;;;5125306;27;20073;-38
2021/04/08 07:37:34;;;;;;;1.95;1.27;;;20.20;40.00;;;;;;5117032;27;20403;-38
2021/04/08 07:40:18;;;;;;;3.70;1.20;;;20.20;40.00;;;;;;5124962;27;20054;-38
2021/04/08 07:42:46;;;;;;;2.72;1.38;;;20.20;40.00;;;;;;5132971;27;20043;-37
2021/04/08 07:45:30;;;;;;;2.20;1.10;;;20.20;40.00;;;;;;5131560;27;20075;-38
2021/04/08 07:48:02;;;;;;;1.83;1.30;;;20.20;40.00;;;;;;5115109;27;20043;-38
2021/04/08 07:50:30;;;;;;;2.17;1.33;;;20.20;40.00;;;;;;5132411;27;20065;-38
2021/04/08 07:53:00;;;;;;;1.83;1.27;;;20.20;40.00;;;;;;5129599;27;20494;-38
2021/04/08 07:55:29;;;;;;;2.50;1.40;;;20.20;40.00;;;;;;5116482;27;20043;-38
2021/04/08 07:58:02;;;;;;;1.92;1.23;;;20.20;40.00;;;;;;5115372;27;20054;-39
2021/04/08 08:00:33;;;;;;;1.83;1.23;;;20.20;40.00;;;;;;5114289;27;20043;-38
2021/04/08 08:03:02;;;;;;;1.90;1.02;;;20.30;40.10;;;;;;5131010;27;20444;-38
2021/04/08 08:05:40;;;;;;;2.05;1.20;;;20.20;40.00;;;;;;5133542;27;20043;-38
2021/04/08 08:08:15;;;;;;;1.50;1.00;;;20.20;40.00;;;;;;5132005;27;20074;-38
2021/04/08 08:10:54;;;;;;;2.55;1.30;;;20.30;40.10;;;;;;5133561;27;20053;-38
2021/04/08 08:13:30;;;;;;;1.75;1.23;;;20.30;40.10;;;;;;5133323;27;20135;-38
2021/04/08 08:15:58;;;;;;;1.77;1.00;;;20.30;40.10;;;;;;5115431;28;20051;-38
2021/04/08 08:18:37;;;;;;;1.85;1.25;;;20.30;40.10;;;;;;5133265;27;20096;-38
2021/04/08 08:21:12;;;;;;;2.20;1.20;;;20.30;40.10;;;;;;5132503;27;20043;-39
2021/04/08 08:23:50;;;;;;;1.83;1.13;;;20.30;40.10;;;;;;5131208;27;20436;-38
2021/04/08 08:26:41;;;;;;;1.77;1.10;;;20.30;40.00;;;;;;5129613;27;20363;-38
2021/04/08 08:29:11;;;;;;;2.10;1.10;;;20.30;40.10;;;;;;5129155;27;20051;-39
2021/04/08 08:32:13;;;;;;;1.63;1.08;;;20.30;40.00;;;;;;5126231;27;20154;-39
2021/04/08 08:34:40;;;;;;;2.05;1.20;;;20.30;40.00;;;;;;5028983;28;20099;-39
2021/04/08 08:37:09;;;;;;;2.15;1.30;;;20.30;40.00;;;;;;5027611;28;20052;-38
2021/04/08 08:39:38;;;;;;;1.98;1.05;;;20.30;40.00;;;;;;5029947;28;20502;-39
2021/04/08 08:42:08;;;;;;;1.88;1.10;;;20.30;40.00;;;;;;5031803;28;20050;-38
2021/04/08 08:44:36;;;;;;;1.90;1.20;;;20.30;40.00;;;;;;5031844;28;20049;-38
2021/04/08 08:47:08;;;;;;;1.98;1.10;;;20.30;40.00;;;;;;5031486;28;20079;-38
2021/04/08 08:49:57;;;;;;;1.58;1.08;;;20.30;40.00;;;;;;5032413;28;20049;-38
2021/04/08 08:52:36;;;;;;;1.80;1.10;;;20.30;40.00;;;;;;5031424;28;20528;-39
2021/04/08 08:55:10;;;;;;;1.58;0.98;;;20.30;40.00;;;;;;5031133;28;20099;-39
2021/04/08 08:57:38;;;;;;;1.80;1.30;;;20.30;40.00;;;;;;5032355;28;20056;-38
2021/04/08 09:00:07;;;;;;;2.38;1.23;;;20.30;40.00;;;;;;5031689;28;20529;-38
2021/04/08 09:02:38;;;;;;;2.70;1.17;;;20.30;40.00;;;;;;5030772;28;20049;-38
2021/04/08 09:05:13;;;;;;;1.48;0.98;;;20.30;40.00;;;;;;5016568;28;20050;-38
2021/04/08 09:07:45;;;;;;;1.50;1.10;;;20.30;40.00;;;;;;5039972;28;20095;-38
2021/04/08 09:10:38;;;;;;;1.13;0.90;;;20.30;40.00;;;;;;5116800;27;20096;-38
2021/04/08 09:13:05;;;;;;;1.58;1.00;;;20.30;40.00;;;;;;5134176;27;20531;-38
2021/04/08 09:15:32;;;;;;;1.77;1.10;;;20.30;40.00;;;;;;5133474;27;20051;-38
2021/04/08 09:18:01;;;;;;;1.65;1.13;;;20.30;40.00;;;;;;5134062;27;20167;-38
2021/04/08 09:20:28;;;;;;;1.60;1.10;;;20.30;40.00;;;;;;5135418;27;20043;-39
2021/04/08 09:22:58;;;;;;;1.50;1.00;;;20.30;40.00;;;;;;5126522;27;20052;-38
2021/04/08 09:25:33;;;;;;;2.25;1.17;;;20.30;40.00;;;;;;5121146;27;20416;-38
2021/04/08 09:28:12;;;;;;;2.17;1.30;;;20.30;40.00;;;;;;5120004;27;20120;-38
2021/04/08 09:30:54;;;;;;;1.40;1.08;;;20.30;40.00;;;;;;5124597;27;20062;-38
2021/04/08 09:33:41;;;;;;;1.90;1.17;;;20.30;39.90;;;;;;5134298;27;20402;-37
2021/04/08 09:36:23;;;;;;;1.35;0.80;;;20.30;39.90;;;;;;5134089;27;20058;-38
2021/04/08 09:39:10;;;;;;;1.63;1.00;;;20.30;39.90;;;;;;5128255;27;20051;-38
2021/04/08 09:41:44;;;;;;;1.58;1.17;;;20.30;39.90;;;;;;5100502;27;20043;-38
2021/04/08 09:44:13;;;;;;;1.33;1.00;;;20.30;39.90;;;;;;5135223;27;20043;-38
2021/04/08 09:46:43;;;;;;;1.95;1.10;;;20.30;39.90;;;;;;5133826;27;20421;-38
2021/04/08 09:49:10;;;;;;;1.50;1.02;;;20.30;39.90;;;;;;5123442;27;20055;-38
2021/04/08 09:51:44;;;;;;;1.60;1.00;;;20.30;39.90;;;;;;5134332;27;20043;-38
2021/04/08 09:54:11;;;;;;;1.23;0.90;;;20.30;39.90;;;;;;5116573;27;20039;-38
2021/04/08 09:56:44;;;;;;;1.30;0.90;;;20.30;39.90;;;;;;5135921;27;20100;-38
2021/04/08 09:59:12;;;;;;;1.42;0.95;;;20.30;39.90;;;;;;5116827;27;20043;-38
2021/04/08 10:01:39;;;;;;;1.92;1.10;;;20.30;39.90;;;;;;5117041;27;20044;-37
2021/04/08 10:04:19;;;;;;;1.30;0.98;;;20.30;39.90;;;;;;5133896;27;20054;-38
2021/04/08 10:06:47;;;;;;;1.65;1.00;;;20.30;39.90;;;;;;5118596;27;20043;-38
2021/04/08 10:09:17;;;;;;;1.85;1.00;;;20.30;39.80;;;;;;5118892;27;20058;-37
2021/04/08 10:11:43;;;;;;;2.35;1.33;;;20.30;40.50;;;;;;5118642;27;20044;-38
2021/04/08 10:14:20;;;;;;;1.60;0.93;;;20.30;39.80;;;;;;5119854;27;20055;-39
2021/04/08 10:17:03;;;;;;;1.35;0.80;;;20.30;39.80;;;;;;5119880;27;20434;-38
2021/04/08 10:19:32;;;;;;;1.40;0.90;;;20.40;39.90;;;;;;5118942;27;20079;-38
2021/04/08 10:21:59;;;;;;;2.60;1.08;;;20.40;39.90;;;;;;5119960;27;20050;-38
2021/04/08 10:24:36;;;;;;;1.77;1.08;;;20.40;39.90;;;;;;5118505;27;20104;-37
2021/04/08 10:27:15;;;;;;;1.35;1.00;;;20.40;39.80;;;;;;5117644;27;20048;-38
2021/04/08 10:29:42;;;;;;;1.73;1.10;;;20.30;39.70;;;;;;5114843;27;20457;-38
2021/04/08 10:32:09;;;;;;;1.70;1.05;;;20.40;39.80;;;;;;5119540;27;20043;-38
2021/04/08 10:34:39;;;;;;;1.52;0.82;;;20.40;39.80;;;;;;5117427;27;20044;-37
2021/04/08 10:37:07;;;;;;;1.67;1.05;;;20.40;39.80;;;;;;5117105;27;20047;-38
2021/04/08 10:39:39;;;;;;;1.75;1.10;;;20.40;39.80;;;;;;5133917;27;20047;-38
2021/04/08 10:42:12;;;;;;;1.60;0.90;;;20.40;39.80;;;;;;5134087;27;20517;-38
2021/04/08 10:44:40;;;;;;;1.23;0.75;;;20.40;39.80;;;;;;5133514;27;20047;-38
2021/04/08 10:47:07;;;;;;;1.98;1.00;;;20.40;39.70;;;;;;5131774;27;20046;-38
2021/04/08 10:49:55;;;;;;;1.77;1.00;;;20.40;39.80;;;;;;5129425;27;20076;-37
2021/04/08 10:52:29;;;;;;;1.63;0.82;;;20.40;39.70;;;;;;5116036;27;20043;-37
2021/04/08 10:55:10;;;;;;;3.17;1.10;;;20.40;39.70;;;;;;5132253;27;20414;-37
2021/04/08 10:57:37;;;;;;;1.58;1.00;;;20.40;39.70;;;;;;5133586;27;20069;-38
2021/04/08 11:00:05;;;;;;;1.38;0.85;;;20.40;39.70;;;;;;5131919;27;20065;-38
2021/04/08 11:02:34;;;;;;;1.63;1.00;;;20.40;39.70;;;;;;5115361;27;20084;-37
2021/04/08 11:05:05;;;;;;;1.80;1.05;;;20.40;39.70;;;;;;5130607;27;20050;-37
2021/04/08 11:07:38;;;;;;;1.73;0.93;;;20.40;39.70;;;;;;5133362;27;20074;-38
2021/04/08 11:10:31;;;;;;;1.70;0.90;;;20.40;39.70;;;;;;5132432;27;20100;-37
2021/04/08 11:12:59;;;;;;;1.40;0.80;;;20.40;39.70;;;;;;5126643;27;20069;-37
2021/04/08 11:15:32;;;;;;;1.30;0.85;;;20.40;39.60;;;;;;5131141;27;20073;-37
2021/04/08 11:18:21;;;;;;;1.20;0.90;;;20.40;39.60;;;;;;5132066;27;20073;-37
2021/04/08 11:20:50;;;;;;;1.75;1.00;;;20.40;39.60;;;;;;5133375;27;20095;-38
2021/04/08 11:23:19;;;;;;;1.45;0.90;;;20.40;39.60;;;;;;5131440;27;20394;-38
2021/04/08 11:26:01;;;;;;;1.80;1.05;;;20.40;39.60;;;;;;5117015;27;20039;-37
2021/04/08 11:28:28;;;;;;;1.63;1.05;;;20.40;39.60;;;;;;5116605;27;20126;-40
2021/04/08 11:30:54;;;;;;;2.00;1.08;;;20.40;39.60;;;;;;5115247;27;20421;-38
2021/04/08 11:33:23;;;;;;;1.60;0.70;;;20.40;39.60;;;;;;5132876;27;20100;-37
2021/04/08 11:35:49;;;;;;;1.40;0.90;;;20.40;39.60;;;;;;5133205;27;20113;-38
2021/04/08 11:38:18;;;;;;;1.88;0.82;;;20.40;39.60;;;;;;5131588;27;20474;-37
2021/04/08 11:41:09;;;;;;;0.95;0.70;;;20.40;39.60;;;;;;5130758;27;20043;-38
2021/04/08 11:43:48;;;;;;;1.10;0.77;;;20.40;39.60;;;;;;5118801;27;20055;-37
2021/04/08 11:46:25;;;;;;;1.40;1.00;;;20.40;39.60;;;;;;5131752;27;20070;-37
2021/04/08 11:48:53;;;;;;;1.83;0.80;;;20.40;39.90;;;;;;5129911;27;20043;-38
2021/04/08 11:51:26;;;;;;;1.55;0.88;;;20.40;39.60;;;;;;5128833;27;20100;-38
2021/04/08 11:53:53;;;;;;;2.13;0.90;;;20.40;39.60;;;;;;5131387;27;20057;-38
2021/04/08 11:56:30;;;;;;;1.02;0.85;;;20.40;39.60;;;;;;5131232;27;20050;-38
2021/04/08 11:59:21;;;;;;;1.55;0.90;;;20.40;39.60;;;;;;5128881;27;20495;-38
2021/04/08 12:01:53;;;;;;;1.58;0.93;;;20.40;39.60;;;;;;5121094;27;20517;-37
2021/04/08 12:04:25;;;;;;;0.68;0.60;;;20.40;39.60;;;;;;5132219;27;20391;-38
2021/04/08 12:06:55;;;;;;;2.15;0.90;;;20.40;39.60;;;;;;5132651;27;20479;-37
2021/04/08 12:09:45;;;;;;;1.58;1.00;;;20.40;39.60;;;;;;5133870;27;20043;-38
2021/04/08 12:12:12;;;;;;;1.90;0.90;;;20.40;39.60;;;;;;5133644;27;20040;-36
2021/04/08 12:15:02;;;;;;;1.40;1.00;;;20.40;39.60;;;;;;5131685;27;20070;-37
2021/04/08 12:17:30;;;;;;;1.58;1.05;;;20.40;39.60;;;;;;5136352;27;20035;-37
2021/04/08 12:20:20;;;;;;;1.75;0.80;;;20.40;39.60;;;;;;5135281;27;20121;-37
2021/04/08 12:22:47;;;;;;;1.65;0.80;;;20.40;39.60;;;;;;5119424;27;20099;-38
2021/04/08 12:25:18;;;;;;;2.25;0.98;;;20.40;39.60;;;;;;5136496;27;20036;-37
2021/04/08 12:27:47;;;;;;;1.20;0.80;;;20.40;39.60;;;;;;5135179;27;20043;-37
2021/04/08 12:30:15;;;;;;;1.30;0.80;;;20.40;39.60;;;;;;5124457;27;20509;-38
2021/04/08 12:32:42;;;;;;;1.52;1.17;;;20.40;39.60;;;;;;5135599;27;20532;-36
2021/04/08 12:35:12;;;;;;;1.00;0.70;;;20.40;39.60;;;;;;5136512;27;20076;-37
2021/04/08 12:37:39;;;;;;;1.50;0.80;;;20.40;39.60;;;;;;5136390;27;20043;-37
2021/04/08 12:40:06;;;;;;;1.17;0.80;;;20.40;39.60;;;;;;5136235;27;20050;-37
2021/04/08 12:42:33;;;;;;;1.40;0.90;;;20.40;39.60;;;;;;5134912;27;20433;-37
2021/04/08 12:45:00;;;;;;;1.10;0.70;;;20.40;39.60;;;;;;5136372;27;20084;-37
2021/04/08 12:47:27;;;;;;;1.25;0.80;;;20.40;39.60;;;;;;5114425;27;20039;-37
2021/04/08 12:49:54;;;;;;;1.40;0.80;;;20.40;39.60;;;;;;5133591;27;20043;-37
2021/04/08 12:52:20;;;;;;;0.90;0.65;;;20.40;39.70;;;;;;5135734;27;20121;-36
2021/04/08 12:54:47;;;;;;;2.38;1.00;;;20.40;39.70;;;;;;5135340;27;20051;-37
2021/04/08 12:57:15;;;;;;;1.75;1.00;;;20.40;39.70;;;;;;5135651;27;20498;-37
2021/04/08 12:59:42;;;;;;;1.00;0.65;;;20.40;39.70;;;;;;5134902;27;20054;-37
2021/04/08 13:02:08;;;;;;;1.10;0.85;;;20.40;39.70;;;;;;5134450;27;20516;-36
2021/04/08 13:04:35;;;;;;;1.38;0.77;;;20.30;39.60;;;;;;5135835;27;20126;-37